Flight Track Log - Related Links

Times and Time Zones

All times are in EDT time to prevent confusion due to time zone crossing. See the DAL1937 flight status page for this flight to view local times or setup timezone preferences in your user account.

Time Position Orientation Groundspeed Altitude Reporting Facility
EDT Latitude Longitude Course Direction KTS MPH feet Rate Location/Type
Mon 06:20:53 AM 39.1500 -76.6500 303° West 166 191 1,200  Level Potomac TRACON
Mon 06:21:41 AM 39.1333 -76.6833 237° Southwest 197 227 2,000 1,765 Climbing Potomac TRACON
Mon 06:22:35 AM 39.1667 -76.7333 311° West 285 328 4,200 2,862 Climbing Potomac TRACON
Mon 06:23:30 AM 39.2000 -76.8167 297° West 272 313 7,200 2,286 Climbing Potomac TRACON
Mon 06:25:44 AM 39.2717 -77.0286 294° West 303 349 11,400 2,062 Climbing Washington Center
Mon 06:26:00 AM 39.6289 -77.5795 303° West  Level Estimated
Mon 06:26:45 AM 39.3097 -77.1500 292° West 340 391 13,900  Level Washington Center
Mon 06:27:45 AM 39.3519 -77.2744 294° West 361 415 16,100 1,934 Climbing Washington Center
Mon 06:28:46 AM 39.3958 -77.4017 294° West 381 438 17,800 1,815 Climbing Washington Center
Mon 06:29:44 AM 39.4417 -77.5400 293° West 401 461 19,700 1,916 Climbing Washington Center
Mon 06:30:45 AM 39.4831 -77.6781 291° West 412 474 21,600 1,664 Climbing Washington Center
Mon 06:31:43 AM 39.5264 -77.8219 291° West 422 486 23,000 1,462 Climbing Washington Center
Mon 06:32:44 AM 39.5714 -77.9742 291° West 435 501 24,500 1,523 Climbing Washington Center
Mon 06:34:00 AM 39.6069 -78.1076 290° West  Level FlightAware Approximate
Mon 06:34:56 AM 39.6756 -78.3067 290° West 444 511 27,900  Level Cleveland Center
Mon 06:35:56 AM 39.7181 -78.4592 290° West 444 511 29,100 1,200 Climbing Cleveland Center
Mon 06:36:56 AM 39.7689 -78.6278 291° West 450 518 30,300 1,000 Climbing Cleveland Center
Mon 06:37:56 AM 39.8069 -78.7833 288° West 450 518 31,100 1,400 Climbing Cleveland Center
Mon 06:38:56 AM 39.8531 -78.9336 292° West 455 524 33,100 1,450 Climbing Cleveland Center
Mon 06:39:56 AM 39.8925 -79.0650 291° West 448 516 34,000 450 Climbing Cleveland Center
Mon 06:40:56 AM 39.9361 -79.2158 291° West 442 509 34,000  Level Cleveland Center
Mon 06:41:56 AM 39.9814 -79.3611 292° West 442 509 34,000  Level Cleveland Center
Mon 06:42:56 AM 40.0475 -79.4956 303° West 442 509 34,000  Level Cleveland Center
Mon 06:43:56 AM 40.1153 -79.6275 304° West 437 503 34,000  Level Cleveland Center
Mon 06:44:56 AM 40.1831 -79.7597 304° West 442 509 34,000 -200 Level Cleveland Center
Mon 06:45:56 AM 40.2506 -79.8947 303° West 442 509 33,600 -700 Descending Cleveland Center
Mon 06:46:56 AM 40.3139 -80.0303 302° West 442 509 32,600 -950 Descending Cleveland Center
Mon 06:47:56 AM 40.3833 -80.1661 304° West 442 509 31,700 -950 Descending Cleveland Center
Mon 06:48:56 AM 40.4483 -80.2967 303° West 442 509 30,700 -850 Descending Cleveland Center
Mon 06:49:56 AM 40.5256 -80.4411 305° West 442 509 30,000 -350 Descending Cleveland Center
Mon 06:50:56 AM 40.5944 -80.5750 304° West 437 503 30,000  Level Cleveland Center
Mon 06:51:56 AM 40.6611 -80.7117 303° West 437 503 30,000  Level Cleveland Center
Mon 06:52:56 AM 40.7278 -80.8461 303° West 437 503 30,000  Level Cleveland Center
Mon 06:53:56 AM 40.7939 -80.9808 303° West 437 503 30,000  Level Cleveland Center
Mon 06:54:56 AM 40.8581 -81.1211 301° West 437 503 30,000  Level Cleveland Center
Mon 06:55:56 AM 40.9239 -81.2564 303° West 437 503 30,000  Level Cleveland Center
Mon 06:56:56 AM 40.9900 -81.3919 303° West 437 503 30,000 -50 Level Cleveland Center
Mon 06:57:56 AM 41.0556 -81.5331 302° West 437 503 29,900 -550 Descending Cleveland Center
Mon 06:58:56 AM 41.1208 -81.6692 303° West 437 503 28,900 -1,000 Descending Cleveland Center
Mon 06:59:56 AM 41.1925 -81.8083 304° West 442 509 27,900 -950 Descending Cleveland Center
Mon 07:00:56 AM 41.2575 -81.9503 301° West 447 514 27,000 -950 Descending Cleveland Center
Mon 07:01:56 AM 41.3247 -82.0872 303° West 447 514 26,000 -1,550 Descending Cleveland Center
Mon 07:02:56 AM 41.3917 -82.2244 303° West 447 514 23,900 -2,250 Descending Cleveland Center
Mon 07:03:56 AM 41.4628 -82.3397 309° West 428 493 21,500 -2,400 Descending Cleveland Center
Mon 07:04:56 AM 41.5339 -82.4556 309° West 407 468 19,100 -2,340 Descending Cleveland Center
Mon 07:05:36 AM 41.5764 -82.5289 308° West 389 448 17,600 -2,276 Descending Cleveland Center
Mon 07:05:54 AM 41.5969 -82.5600 311° West 385 443 16,900 -2,506 Descending Cleveland Center
Mon 07:06:55 AM 41.6636 -82.6789 307° West 373 429 14,300 -2,361 Descending Cleveland Center
Mon 07:07:56 AM 41.7303 -82.7839 310° West 364 419 12,100 -1,140 Descending Cleveland Center
Mon 07:08:56 AM 41.7933 -82.8614 318° Northwest 365 420 12,000 -50 Descending Cleveland Center
Mon 07:09:56 AM 41.8667 -82.9506 318° Northwest 358 412 12,000  Level Cleveland Center
Mon 07:10:56 AM 41.9439 -83.0428 318° Northwest 358 412 12,000 -450 Level Cleveland Center
Mon 07:11:56 AM 42.0172 -83.1322 318° Northwest 358 412 11,100 -500 Descending Cleveland Center
Mon 07:12:56 AM 42.0800 -83.2075 318° Northwest 341 392 11,000 -200 Descending Cleveland Center
Mon 07:13:56 AM 42.1506 -83.2272 348° North 268 308 10,700 -1,000 Descending Cleveland Center
Mon 07:14:56 AM 42.2200 -83.1964 18° North 250 288 9,000 -1,836 Descending Cleveland Center
Mon 07:16:10 AM 42.3025 -83.1353 29° Northeast 248 285 6,600 -1,714 Descending Cleveland Center
Mon 07:17:16 AM 42.3675 -83.1264 North 219 252 5,000 -803 Descending Cleveland Center
Mon 07:18:17 AM 42.3722 -83.1969 275° West 188 216 4,900 -98 Descending Cleveland Center

Login

Don't have an account? Register now (free) for customized features, flight alerts, and more!